メインページ
METAR-TAF:

METAR-TAF

空港 :

シャールジャ国際空港

シャールジャ, アラブ首長国連邦

緯度: 25-20N, 経度: 055-31E, 海抜: 35m

現時点の気象観測

当レポートは50分前の03:00(UTC)に作成
東/南東の風 12kt
気温 24°C
湿度 69%
気圧 1011 hPa
視程: 8000m

METAR: OMSJ 250300Z 11012KT 8000 NSC 24/18 Q1011

時間: 07:50 (03:50 UTC)

予報

当レポートは4時間47分前の23:03(UTC)に作成
予報は25日の 00時(UTC)から 26日の 06時(UTC)まで有効
の風 15kt
視程: 8000m
確率 30%
25日の 00時(UTC)から 25日の 04時(UTC)まで
東/南東の風 20kt、最大30ktの突風を伴う
視程: 1500m
風塵
確率 30% :
25日の 04時(UTC)から 25日の 08時(UTC)まで一時的に
南/南東の風 15kt、最大25ktの突風を伴う
視程: 3000m
風塵
25日の 09時(UTC)から 25日の 11時(UTC)まで徐々に
北/北東の風 15kt
25日の 14時(UTC)から 25日の 16時(UTC)まで徐々に
の風 9kt

TAF: OMSJ 242303Z 2500/2606 09015KT 8000 NSC PROB30 2500/2504 11020G30KT 1500 BLDU PROB30 TEMPO 2504/2508 16015G25KT 3000 BLDU BECMG 2509/2511 02015KT BECMG 2514/2516 09009KT

4,000以上の空港の気象観測と天気予報(METAR報とTAF報)

利用可能な観測所は地図上に黄色い丸と赤い丸で示す。

丸の上にカーソルを重ねると観測所名を参照できる。

次にクリックすると気象観測と天気予報を参照できる。

マップの切り替え:黒色「×」印の緑ボタンをクリックして拡大、「-」印の緑ボタンをクリックして縮小、緑色の三角印をクリックして隣りの地図に切り替え


METAR-TAF: